Portland Hillsboro Airport
KHIO : now visible

Airfield :











YOU CAN JOIN US ON...

 
LOGIN :

Register | Disclaimer

   EN    FR    IT 

 









Legend :    VFR   Marginal VFR   IFR   Intensive IFR   Very Intensive IFR
Visi :
Ceiling :
>= 8 km
>= 3000ft
5 to 8 km
1000 to 3000 ft
1500m to 5 km
500 to 1000 ft
800 to 1500m
200 to 500 ft
< 800m
< 200 ft
Symbols :   Thunderstorms  Fog  Heavy snow  Heavy precipitations  Wind > 20 kt






- Airport Elevation : 208 ft


KHIO - Portland Hillsboro

CURRENT METAR :
  • 171953Z 18003KT 10SM SCT008 06/03 A3044 RMK AO2 SLP308 T00610033

EXPIRED METARs :
  • 171945Z 21003KT 10SM SCT008 06/04 A3044 RMK AO2 T00560039
  • 171923Z 00000KT 6SM BR BKN006 BKN041 05/04 A3044 RMK AO2 T00500039
  • 171904Z 00000KT 3SM BR OVC002 04/03 A3044 RMK AO2 T00390033
  • 171853Z 00000KT 1SM R13R/4500VP6000FT BR OVC002 03/03 A3044 RMK AO2 SLP312 T00330033
  • 171839Z 00000KT 1/2SM R13R/1600VP6000FT FG VV002 03/03 A3044 RMK AO2 T00280028
  • 171753Z 00000KT 1/4SM R13R/1000V1400FT FG VV001 02/02 A3044 RMK AO2 SLP311 60000 T00220017 10028 20006 51014

TAF KHIO
Valid from the 17 at 18:00 until the 18 at 18:00 UTC


171730Z 1718/1818 00000KT 1/4SM FG VV001
FM171900 00000KT 5SM BR SCT002 BKN035
FM172000 VRB03KT P6SM SCT030 BKN070
FM180300 00000KT P6SM SCT250
FM180600 00000KT 1/2SM FG VV002
FM181200 VRB02KT P6SM MIFG SCT002



MET'MAP, your aeronautical weather chart ! - Copyright ORBIFLY December 2007 - Disclaimer

ORBIFLY MET'MAP TEAM :

Programming & Development : Alexandra Zaïnal
Concept & original design : Baudouin d'Aumeries
Assistance for programming : Marc-Olivier Méhu
Technical & hardware support : Manuel Goepfert

Contact : metmap@orbifly.com




SOURCES & CREDITS :

   NOAA       Earth
Advisory